createdAt,value
2018-04-17T00:01:24.303Z,7.07
2018-04-17T00:03:50.559Z,7.57
2018-04-17T00:06:16.869Z,7.25
2018-04-17T00:08:43.137Z,6.12
2018-04-17T00:11:09.393Z,6.10
2018-04-17T00:13:35.670Z,8.55
2018-04-17T00:16:01.923Z,6.60
2018-04-17T00:18:28.511Z,6.85
2018-04-17T00:20:55.504Z,6.80
2018-04-17T00:23:21.762Z,7.12
2018-04-17T00:25:48.095Z,6.68
2018-04-17T00:28:15.114Z,6.32
2018-04-17T00:30:41.385Z,7.97
2018-04-17T00:33:08.404Z,8.48
2018-04-17T00:35:34.681Z,6.78
2018-04-17T00:38:00.965Z,5.78
2018-04-17T00:40:27.242Z,6.95
2018-04-17T00:42:53.518Z,6.72
2018-04-17T00:45:19.829Z,6.28
2018-04-17T00:47:46.131Z,6.90
2018-04-17T00:50:12.380Z,6.95
2018-04-17T00:52:38.661Z,7.15
2018-04-17T00:55:04.983Z,5.75
2018-04-17T00:57:33.035Z,7.10
2018-04-17T00:59:59.316Z,7.15
2018-04-17T01:02:26.366Z,7.07
2018-04-17T01:04:52.662Z,7.90
2018-04-17T01:07:19.538Z,7.05
2018-04-17T01:09:45.819Z,7.20
2018-04-17T01:12:12.118Z,7.15
2018-04-17T01:14:38.422Z,6.37
2018-04-17T01:17:05.452Z,8.10
2018-04-17T01:19:31.758Z,7.45
2018-04-17T01:21:58.027Z,7.07
2018-04-17T01:24:25.022Z,7.45
2018-04-17T01:26:51.611Z,6.68
2018-04-17T01:29:18.614Z,7.37
2018-04-17T01:31:44.916Z,7.45
2018-04-17T01:34:11.203Z,6.25
2018-04-17T01:36:37.468Z,7.12
2018-04-17T01:39:03.787Z,6.45
2018-04-17T01:41:30.044Z,5.90
2018-04-17T01:43:56.645Z,6.70
2018-04-17T01:46:23.649Z,7.70
2018-04-17T01:48:49.905Z,6.93
2018-04-17T01:51:16.186Z,7.57
2018-04-17T01:53:42.446Z,6.45
2018-04-17T01:56:08.725Z,6.35
2018-04-17T01:58:34.990Z,7.45
2018-04-17T02:01:01.281Z,6.90
2018-04-17T02:03:27.557Z,7.55
2018-04-17T02:05:53.819Z,6.87
2018-04-17T02:08:20.085Z,6.55
2018-04-17T02:10:46.398Z,6.43
2018-04-17T02:13:13.397Z,6.20
2018-04-17T02:15:39.678Z,6.68
2018-04-17T02:18:06.686Z,7.45
2018-04-17T02:20:32.974Z,5.50
2018-04-17T02:22:59.252Z,6.32
2018-04-17T02:25:25.505Z,7.22
2018-04-17T02:27:52.513Z,6.22
2018-04-17T02:30:18.765Z,6.43
2018-04-17T02:32:45.038Z,8.15
2018-04-17T02:35:11.318Z,6.28
2018-04-17T02:37:37.596Z,6.50
2018-04-17T02:40:03.866Z,6.90
2018-04-17T02:42:30.126Z,6.68
2018-04-17T02:44:57.154Z,6.15
2018-04-17T02:47:24.243Z,6.65
2018-04-17T02:49:50.500Z,5.57
2018-04-17T02:52:16.781Z,7.10
2018-04-17T02:54:43.769Z,6.15
2018-04-17T02:57:10.045Z,6.40
2018-04-17T02:59:36.301Z,6.37
2018-04-17T03:02:03.281Z,6.00
2018-04-17T03:04:29.555Z,6.95
2018-04-17T03:06:55.815Z,6.53
2018-04-17T03:09:22.094Z,6.82
2018-04-17T03:11:48.354Z,6.05
2018-04-17T03:14:15.370Z,6.30
2018-04-17T03:16:41.646Z,7.00
2018-04-17T03:19:07.954Z,7.20
2018-04-17T03:21:34.219Z,7.07
2018-04-17T03:24:00.493Z,7.72
2018-04-17T03:26:26.743Z,7.70
2018-04-17T03:28:53.769Z,8.18
2018-04-17T03:31:20.043Z,7.22
2018-04-17T03:33:46.319Z,6.10
2018-04-17T03:36:12.602Z,7.07
2018-04-17T03:38:38.836Z,7.90
2018-04-17T03:41:05.114Z,7.10
2018-04-17T03:43:31.360Z,6.80
2018-04-17T03:45:57.634Z,5.80
2018-04-17T03:48:23.901Z,6.78
2018-04-17T03:50:50.185Z,7.07
2018-04-17T03:53:17.190Z,7.05
2018-04-17T03:55:43.462Z,7.22
2018-04-17T03:58:09.703Z,6.93
2018-04-17T04:00:35.953Z,7.00
2018-04-17T04:03:02.217Z,7.65
2018-04-17T04:05:28.498Z,6.97
2018-04-17T04:07:54.790Z,7.07
2018-04-17T04:10:21.778Z,7.60
2018-04-17T04:12:48.051Z,7.50
2018-04-17T04:15:15.050Z,8.50
2018-04-17T04:17:53.576Z,6.70
2018-04-17T04:23:35.298Z,7.72
2018-04-17T04:26:13.959Z,7.32
2018-04-17T04:28:40.987Z,6.50
2018-04-17T04:31:07.252Z,8.38
2018-04-17T05:55:29.896Z,8.00
2018-04-17T05:57:56.170Z,8.15
2018-04-17T06:00:22.445Z,8.18
2018-04-17T06:02:48.714Z,7.53
2018-04-17T06:05:15.035Z,8.68
2018-04-17T06:07:41.292Z,8.27
2018-04-17T06:10:08.305Z,8.55
2018-04-17T06:12:34.577Z,9.00
2018-04-17T06:15:01.578Z,8.38
2018-04-17T06:17:27.903Z,9.55
2018-04-17T06:19:54.179Z,8.60
2018-04-17T06:22:21.225Z,8.23
2018-04-17T06:24:47.501Z,7.90
2018-04-17T06:27:13.791Z,8.35
2018-04-17T06:29:40.114Z,7.87
2018-04-17T06:32:07.154Z,6.80
2018-04-17T06:34:34.167Z,8.47
2018-04-17T06:37:00.436Z,6.73
2018-04-17T06:39:26.759Z,7.70
2018-04-17T06:41:53.839Z,7.57
2018-04-17T06:44:20.178Z,6.63
2018-04-17T06:46:46.446Z,8.20
2018-04-17T06:49:12.734Z,7.10
2018-04-17T06:51:38.998Z,6.50
2018-04-17T06:54:05.291Z,6.80
2018-04-17T06:56:31.557Z,7.60
2018-04-17T06:58:57.835Z,8.33
2018-04-17T07:01:24.105Z,8.00
2018-04-17T07:03:50.405Z,8.30
2018-04-17T07:06:16.679Z,9.73
2018-04-17T07:08:42.937Z,7.77
2018-04-17T07:11:09.976Z,8.17
2018-04-17T07:13:36.974Z,8.70
2018-04-17T07:16:03.290Z,9.20
2018-04-17T07:18:29.614Z,8.43
2018-04-17T07:20:56.644Z,8.57
2018-04-17T07:23:23.651Z,9.27
2018-04-17T07:25:49.982Z,7.67
2018-04-17T07:28:16.236Z,8.20
2018-04-17T07:30:42.553Z,8.73
2018-04-17T07:33:08.810Z,8.40
2018-04-17T07:35:35.074Z,9.20
2018-04-17T07:38:01.386Z,9.07
2018-04-17T07:40:28.477Z,8.50
2018-04-17T07:42:54.689Z,8.87
2018-04-17T07:45:20.975Z,8.17
2018-04-17T07:48:15.666Z,8.50
2018-04-17T07:50:41.957Z,8.60
2018-04-17T07:53:08.230Z,8.50
2018-04-17T07:55:34.479Z,8.57
2018-04-17T07:58:01.526Z,9.27
2018-04-17T08:00:27.798Z,9.70
2018-04-17T08:02:54.086Z,8.63
2018-04-17T08:05:21.086Z,8.37
2018-04-17T08:07:48.217Z,8.50
2018-04-17T08:10:14.494Z,8.80
2018-04-17T08:12:40.779Z,10.83
2018-04-17T08:15:07.055Z,10.20
2018-04-17T08:17:34.153Z,8.53
2018-04-17T08:20:01.126Z,8.63
2018-04-17T08:22:27.492Z,9.07
2018-04-17T08:24:53.932Z,9.30
2018-04-17T08:27:20.238Z,8.70
2018-04-17T08:29:47.329Z,8.40
2018-04-17T08:32:13.746Z,7.60
2018-04-17T08:34:40.099Z,8.80
2018-04-17T08:37:06.411Z,10.00
2018-04-17T08:39:33.848Z,9.27
2018-04-17T08:42:00.190Z,9.27
2018-04-17T08:44:26.559Z,11.00
2018-04-17T08:46:52.966Z,8.67
2018-04-17T08:49:19.376Z,8.53
2018-04-17T08:51:45.703Z,9.33
2018-04-17T08:54:12.038Z,8.57
2018-04-17T08:56:38.376Z,8.77
2018-04-17T08:59:04.734Z,8.77
2018-04-17T09:01:31.021Z,9.90
2018-04-17T09:03:58.106Z,9.90
2018-04-17T09:06:24.424Z,9.83
2018-04-17T09:08:50.788Z,9.50
2018-04-17T09:11:17.110Z,9.33
2018-04-17T09:13:43.414Z,10.70
2018-04-17T09:16:10.484Z,9.83
2018-04-17T09:18:36.826Z,9.63
2018-04-17T09:21:03.237Z,9.27
2018-04-17T09:23:29.686Z,8.67
2018-04-17T09:25:56.053Z,8.60
2018-04-17T09:28:22.484Z,9.10
2018-04-17T09:30:48.862Z,8.50
2018-04-17T09:33:15.934Z,9.80
2018-04-17T09:35:42.253Z,9.87
2018-04-17T09:38:08.531Z,9.97
2018-04-17T09:40:34.984Z,10.40
2018-04-17T09:43:01.545Z,10.27
2018-04-17T09:45:28.912Z,10.97
2018-04-17T09:47:55.506Z,9.33
2018-04-17T09:50:22.018Z,9.33
2018-04-17T09:52:48.471Z,9.30
2018-04-17T09:55:14.966Z,10.67
2018-04-17T09:57:41.376Z,10.80
2018-04-17T10:00:07.813Z,11.23
2018-04-17T10:02:34.464Z,10.00
2018-04-17T10:05:01.719Z,12.30
2018-04-17T10:07:28.089Z,12.57
2018-04-17T10:09:54.709Z,12.40
2018-04-17T10:12:21.116Z,12.47
2018-04-17T10:14:47.506Z,11.70
2018-04-17T10:17:14.036Z,12.20
2018-04-17T10:19:40.407Z,11.40
2018-04-17T10:22:06.914Z,11.07
2018-04-17T10:24:33.583Z,11.63
2018-04-17T10:27:00.239Z,10.77
2018-04-17T10:29:26.714Z,13.37
2018-04-17T10:31:53.106Z,14.27
2018-04-17T10:34:19.392Z,13.57
2018-04-17T10:36:45.634Z,12.83
2018-04-17T10:39:12.685Z,11.73
2018-04-17T10:41:39.723Z,11.13
2018-04-17T10:44:06.790Z,11.00
2018-04-17T10:46:33.162Z,10.50
2018-04-17T10:48:59.666Z,11.03
2018-04-17T10:51:25.944Z,10.80
2018-04-17T10:53:52.291Z,10.50
2018-04-17T10:56:18.513Z,10.87
2018-04-17T10:58:44.790Z,10.80
2018-04-17T11:01:11.101Z,10.20
2018-04-17T11:03:37.399Z,10.07
2018-04-17T11:06:03.742Z,12.17
2018-04-17T11:08:30.009Z,11.93
2018-04-17T11:10:56.862Z,13.67
2018-04-17T11:13:23.332Z,13.00
2018-04-17T11:15:50.366Z,12.77
2018-04-17T11:18:16.679Z,12.73
2018-04-17T11:20:42.986Z,12.10
2018-04-17T11:23:09.335Z,12.00
2018-04-17T11:25:36.344Z,12.20
2018-04-17T11:28:02.619Z,12.37
2018-04-17T11:30:28.926Z,11.60
2018-04-17T11:32:55.278Z,12.70
2018-04-17T11:35:21.597Z,10.70
2018-04-17T11:37:47.920Z,13.13
2018-04-17T11:40:14.298Z,11.57
2018-04-17T11:42:40.593Z,11.40
2018-04-17T11:45:07.001Z,11.13
2018-04-17T11:47:33.300Z,11.40
2018-04-17T11:50:00.342Z,10.97
2018-04-17T11:52:26.658Z,10.47
2018-04-17T11:54:52.997Z,10.20
2018-04-17T11:57:19.365Z,10.87
2018-04-17T11:59:45.717Z,11.47
2018-04-17T12:02:12.046Z,11.00
2018-04-17T12:04:38.374Z,12.43
2018-04-17T12:07:04.715Z,10.23
2018-04-17T12:09:31.030Z,9.57
2018-04-17T12:11:57.296Z,11.57
2018-04-17T12:14:23.579Z,11.33
2018-04-17T12:16:50.583Z,11.37
2018-04-17T12:19:16.911Z,10.90
2018-04-17T12:21:43.186Z,13.13
2018-04-17T12:24:10.323Z,11.30
2018-04-17T12:26:37.360Z,10.60
2018-04-17T12:29:03.677Z,10.00
2018-04-17T12:31:29.974Z,12.50
2018-04-17T12:33:56.261Z,11.40
2018-04-17T12:36:22.583Z,11.03
2018-04-17T12:38:48.870Z,13.30
2018-04-17T12:41:15.121Z,13.23
2018-04-17T12:43:41.564Z,10.80
2018-04-17T12:46:07.817Z,11.57
2018-04-17T12:48:34.854Z,12.97
2018-04-17T12:51:01.149Z,11.03
2018-04-17T12:53:27.481Z,11.93
2018-04-17T12:55:53.872Z,10.87
2018-04-17T12:58:20.201Z,11.30
2018-04-17T13:00:46.534Z,12.70
2018-04-17T13:03:12.811Z,10.67
2018-04-17T13:05:39.090Z,11.77
2018-04-17T13:08:06.314Z,12.20
2018-04-17T13:10:32.597Z,13.77
2018-04-17T13:12:58.890Z,11.90
2018-04-17T13:15:25.890Z,11.30
2018-04-17T13:17:52.182Z,12.43
2018-04-17T13:20:18.526Z,12.40
2018-04-17T13:22:44.806Z,11.80
2018-04-17T13:25:11.058Z,13.03
2018-04-17T13:27:38.170Z,12.30
2018-04-17T13:30:04.490Z,12.20
2018-04-17T13:32:30.778Z,12.30
2018-04-17T13:34:57.091Z,12.70
2018-04-17T13:37:23.393Z,11.80
2018-04-17T13:39:49.682Z,12.97
2018-04-17T13:42:15.986Z,10.90
2018-04-17T13:44:42.248Z,11.07
2018-04-17T13:47:08.527Z,11.47
2018-04-17T13:49:34.842Z,10.97
2018-04-17T13:52:01.130Z,11.03
2018-04-17T13:54:27.397Z,11.23
2018-04-17T13:56:53.678Z,13.93
2018-04-17T13:59:20.744Z,12.03
2018-04-17T14:01:47.079Z,10.70
2018-04-17T14:04:13.318Z,9.73
2018-04-17T14:06:39.631Z,10.70
2018-04-17T14:09:05.947Z,10.67
2018-04-17T14:11:33.024Z,11.90
2018-04-17T14:13:59.310Z,11.90
2018-04-17T14:16:25.680Z,10.97
2018-04-17T14:18:51.950Z,12.00
2018-04-17T14:21:18.530Z,11.17
2018-04-17T14:23:44.996Z,12.83
2018-04-17T14:26:11.930Z,12.07
2018-04-17T14:28:38.438Z,11.93
2018-04-17T14:31:04.838Z,10.50
2018-04-17T14:33:31.224Z,11.47
2018-04-17T14:35:57.538Z,11.97
2018-04-17T14:38:24.565Z,11.43
2018-04-17T14:40:50.842Z,11.90
2018-04-17T14:43:17.113Z,11.30
2018-04-17T14:45:43.371Z,11.17
2018-04-17T14:48:09.666Z,11.27
2018-04-17T14:50:35.947Z,12.10
2018-04-17T14:53:02.251Z,12.50
2018-04-17T14:55:28.577Z,11.83
2018-04-17T14:57:54.878Z,10.67
2018-04-17T15:00:22.015Z,11.93
2018-04-17T15:02:48.290Z,11.50
2018-04-17T15:05:14.590Z,12.10
2018-04-17T15:07:40.842Z,10.57
2018-04-17T15:10:07.130Z,10.63
2018-04-17T15:12:33.398Z,9.97
2018-04-17T15:14:59.647Z,13.00
2018-04-17T15:17:28.818Z,12.13
2018-04-17T15:19:55.872Z,10.20
2018-04-17T15:22:26.498Z,11.47
2018-04-17T15:24:52.769Z,10.33
2018-04-17T15:27:19.792Z,9.90
2018-04-17T15:29:46.046Z,9.70
2018-04-17T15:32:12.326Z,9.00
2018-04-17T15:34:38.647Z,9.40
2018-04-17T15:37:04.986Z,8.40
2018-04-17T15:39:31.289Z,9.23
2018-04-17T15:41:57.595Z,7.67
2018-04-17T15:44:24.058Z,9.90
2018-04-17T15:46:50.404Z,8.70
2018-04-17T15:49:16.775Z,9.87
2018-04-17T15:51:43.810Z,8.20
2018-04-17T15:54:10.095Z,8.37
2018-04-17T15:56:36.370Z,8.67
2018-04-17T15:59:02.642Z,9.80
2018-04-17T16:01:28.942Z,8.63
2018-04-17T16:03:55.443Z,8.23
2018-04-17T16:06:21.777Z,9.03
2018-04-17T16:08:48.232Z,8.60
2018-04-17T16:11:14.603Z,7.37
2018-04-17T16:13:40.930Z,8.07
2018-04-17T16:16:07.225Z,6.20
2018-04-17T16:18:34.254Z,6.60
2018-04-17T16:21:00.572Z,6.20
2018-04-17T16:23:26.902Z,6.47
2018-04-17T16:25:54.103Z,7.40
2018-04-17T16:28:21.379Z,5.43
2018-04-17T16:30:47.813Z,5.90
2018-04-17T16:33:14.172Z,5.40
2018-04-17T16:35:40.521Z,5.03
2018-04-17T16:38:06.834Z,6.03
2018-04-17T16:40:33.182Z,5.40
2018-04-17T16:42:59.711Z,4.13
2018-04-17T16:45:26.059Z,4.73
2018-04-17T16:47:53.319Z,4.13
2018-04-17T16:50:20.361Z,3.47
2018-04-17T16:52:47.078Z,6.00
2018-04-17T16:55:13.340Z,4.60
2018-04-17T16:57:39.659Z,3.30
2018-04-17T17:00:06.051Z,4.33
2018-04-17T17:02:32.809Z,4.10
2018-04-17T17:04:59.091Z,4.20
2018-04-17T17:07:26.591Z,4.40
2018-04-17T17:09:52.917Z,3.77
2018-04-17T17:12:20.006Z,3.47
2018-04-17T17:14:46.300Z,2.87
2018-04-17T17:17:12.586Z,3.80
2018-04-17T17:19:38.915Z,4.27
2018-04-17T17:22:05.162Z,4.17
2018-04-17T17:24:32.165Z,3.60
2018-04-17T17:26:58.446Z,4.10
2018-04-17T17:29:25.540Z,2.80
2018-04-17T17:31:51.775Z,3.63
2018-04-17T17:34:18.050Z,3.27
2018-04-17T17:36:45.082Z,3.80
2018-04-17T17:39:12.082Z,3.00
2018-04-17T17:41:38.385Z,3.10
2018-04-17T17:44:04.776Z,3.00
2018-04-17T17:46:31.040Z,3.17
2018-04-17T17:48:57.358Z,2.50
2018-04-17T17:51:24.402Z,3.47
2018-04-17T17:53:51.422Z,5.10
2018-04-17T17:56:17.686Z,4.30
2018-04-17T17:58:44.718Z,5.10
2018-04-17T18:01:11.770Z,4.00
2018-04-17T18:03:38.806Z,3.90
2018-04-17T18:06:05.074Z,4.50
2018-04-17T18:08:31.358Z,3.40
2018-04-17T18:10:57.619Z,5.23
2018-04-17T18:13:24.607Z,5.17
2018-04-17T18:15:50.913Z,4.97
2018-04-17T18:18:17.218Z,6.77
2018-04-17T18:20:44.239Z,4.47
2018-04-17T18:23:10.513Z,4.93
2018-04-17T18:25:36.762Z,4.90
2018-04-17T18:28:03.051Z,3.90
2018-04-17T18:30:29.362Z,5.63
2018-04-17T18:32:55.662Z,7.77
2018-04-17T18:35:21.914Z,4.73
2018-04-17T18:37:48.218Z,6.50
2018-04-17T18:40:14.485Z,3.90
2018-04-17T18:42:40.730Z,7.17
2018-04-17T18:45:07.770Z,4.90
2018-04-17T18:47:34.022Z,6.67
2018-04-17T18:50:00.344Z,4.93
2018-04-17T18:52:27.349Z,4.33
2018-04-17T18:54:53.634Z,5.07
2018-04-17T18:57:19.946Z,7.20
2018-04-17T18:59:46.971Z,6.47
2018-04-17T19:02:13.273Z,5.70
2018-04-17T19:04:39.549Z,5.90
2018-04-17T19:07:06.586Z,5.10
2018-04-17T19:09:32.843Z,5.27
2018-04-17T19:11:59.126Z,6.17
2018-04-17T19:14:25.459Z,3.93
2018-04-17T19:16:51.693Z,5.00
2018-04-17T19:19:17.942Z,6.50
2018-04-17T19:21:44.974Z,7.20
2018-04-17T19:24:11.285Z,5.30
2018-04-17T19:26:37.593Z,3.80
2018-04-17T19:29:03.853Z,4.93
2018-04-17T19:31:30.123Z,6.13
2018-04-17T19:33:57.214Z,7.43
2018-04-17T19:36:23.481Z,11.23
2018-04-17T19:38:49.846Z,11.47
2018-04-17T19:41:16.126Z,12.93
2018-04-17T19:43:42.441Z,12.30
2018-04-17T19:46:08.707Z,13.93
2018-04-17T19:48:35.769Z,14.30
2018-04-17T19:51:02.143Z,15.57
2018-04-17T19:53:28.415Z,11.80
2018-04-17T19:55:54.721Z,8.33
2018-04-17T19:58:21.039Z,9.80
2018-04-17T20:00:47.307Z,5.73
2018-04-17T20:03:13.561Z,9.00
2018-04-17T20:05:39.872Z,10.37
2018-04-17T20:08:06.912Z,10.03
2018-04-17T20:10:33.210Z,9.87
2018-04-17T20:12:59.469Z,10.90
2018-04-17T20:15:25.778Z,11.23
2018-04-17T20:17:52.070Z,14.87
2018-04-17T20:20:18.374Z,13.73
2018-04-17T20:22:45.410Z,13.17
2018-04-17T20:25:11.671Z,14.97
2018-04-17T20:27:37.970Z,12.20
2018-04-17T20:30:04.264Z,12.90
2018-04-17T20:32:30.569Z,12.30
2018-04-17T20:34:57.541Z,11.50
2018-04-17T20:37:23.794Z,9.83
2018-04-17T20:39:50.070Z,9.87
2018-04-17T20:42:16.411Z,13.10
2018-04-17T20:44:43.636Z,11.67
2018-04-17T20:47:10.654Z,11.43
2018-04-17T20:49:36.929Z,12.73
2018-04-17T20:52:03.992Z,14.40
2018-04-17T20:54:30.353Z,11.67
2018-04-17T20:56:56.731Z,11.57
2018-04-17T20:59:23.782Z,11.90
2018-04-17T21:01:50.804Z,10.80
2018-04-17T21:04:17.053Z,11.20
2018-04-17T21:06:44.139Z,17.03
2018-04-17T21:09:10.428Z,10.63
2018-04-17T21:11:37.498Z,10.90
2018-04-17T21:14:03.853Z,13.90
2018-04-17T21:16:30.449Z,11.30
2018-04-17T21:18:56.717Z,10.57
2018-04-17T21:21:23.059Z,12.00
2018-04-17T21:23:49.410Z,11.90
2018-04-17T21:26:15.722Z,10.33
2018-04-17T21:28:42.421Z,12.30
2018-04-17T21:31:08.721Z,11.63
2018-04-17T21:33:34.989Z,11.47
2018-04-17T21:36:01.321Z,12.20
2018-04-17T21:38:27.545Z,10.50
2018-04-17T21:40:54.574Z,11.60
2018-04-17T21:43:21.585Z,9.30
2018-04-17T21:45:47.891Z,10.57
2018-04-17T21:48:14.185Z,10.17
2018-04-17T21:50:41.207Z,8.43
2018-04-17T21:53:07.482Z,8.43
2018-04-17T21:55:33.745Z,9.80
2018-04-17T21:58:00.030Z,8.73
2018-04-17T22:00:27.161Z,9.50
2018-04-17T22:02:54.158Z,8.60
2018-04-17T22:05:20.449Z,31.53
2018-04-17T22:07:47.721Z,14.43
2018-04-17T22:10:13.997Z,9.60
2018-04-17T22:12:40.258Z,10.83
2018-04-17T22:15:07.257Z,11.20
2018-04-17T22:17:33.551Z,10.10
2018-04-17T22:19:59.854Z,11.37
2018-04-17T22:22:26.202Z,10.00
2018-04-17T22:24:53.261Z,9.37
2018-04-17T22:27:20.263Z,11.53
2018-04-17T22:29:46.542Z,10.20
2018-04-17T22:32:12.846Z,11.03
2018-04-17T22:34:39.170Z,11.53
2018-04-17T22:37:05.478Z,13.00
2018-04-17T22:39:31.794Z,9.73
2018-04-17T22:41:58.138Z,11.70
2018-04-17T22:44:24.531Z,10.50
2018-04-17T22:46:50.850Z,24.03
2018-04-17T22:49:17.866Z,10.03
2018-04-17T22:51:44.149Z,10.17
2018-04-17T22:54:10.433Z,10.10
2018-04-17T22:56:36.774Z,10.63
2018-04-17T22:59:03.832Z,10.33
2018-04-17T23:01:30.832Z,9.87
2018-04-17T23:03:57.092Z,10.00
2018-04-17T23:06:23.382Z,10.27
2018-04-17T23:08:50.729Z,10.73
2018-04-17T23:11:16.977Z,11.63
2018-04-17T23:13:43.253Z,12.03
2018-04-17T23:16:10.590Z,12.20
2018-04-17T23:18:37.603Z,11.60
2018-04-17T23:21:03.881Z,11.80
2018-04-17T23:23:30.877Z,12.80
2018-04-17T23:25:57.146Z,12.20
2018-04-17T23:28:24.175Z,15.33
2018-04-17T23:30:50.455Z,13.50
2018-04-17T23:33:16.722Z,12.40
2018-04-17T23:35:42.968Z,14.53
2018-04-17T23:38:09.367Z,12.63
2018-04-17T23:40:35.678Z,12.43
2018-04-17T23:43:01.946Z,13.20
2018-04-17T23:45:28.274Z,13.60
2018-04-17T23:47:54.557Z,13.97
2018-04-17T23:50:20.806Z,12.80
2018-04-17T23:52:47.058Z,14.00
2018-04-17T23:55:13.356Z,12.17
2018-04-17T23:57:39.608Z,14.67
